Flight Track Log - Related Links

Times and Time Zones

All times are in EDT time to prevent confusion due to time zone crossing. See the LAK15 flight status page for this flight to view local times or setup timezone preferences in your user account.

Time Position Orientation Groundspeed Altitude Reporting Facility
EDT Latitude Longitude Course Direction KTS MPH feet Rate Location/Type
Sat 04:30:51 PM 40.9394 -72.3631 217° Southwest 187 215 3,500  Level Boston Center
Sat 04:31:51 PM 40.8936 -72.3989 211° Southwest 187 215 5,600 2,150 Climbing Boston Center
Sat 04:32:51 PM 40.8500 -72.4319 210° Southwest 193 222 7,800 2,100 Climbing Boston Center
Sat 04:33:51 PM 40.8103 -72.4758 220° Southwest 188 216 9,800 1,900 Climbing Boston Center
Sat 04:34:51 PM 40.7686 -72.5086 211° Southwest 188 216 11,600 1,900 Climbing Boston Center
Sat 04:35:51 PM 40.7289 -72.5469 216° Southwest 177 204 13,600 1,750 Climbing Boston Center
Sat 04:36:00 PM 40.4465 -72.8535 217° Southwest  Level FlightAware Approximate
Sat 04:36:51 PM 40.6936 -72.5850 219° Southwest 172 198 15,100  Level Boston Center
Sat 04:37:51 PM 40.6539 -72.6317 222° Southwest 177 204 16,200 1,300 Climbing Boston Center
Sat 04:38:51 PM 40.6100 -72.6833 222° Southwest 198 228 17,700 1,450 Climbing Boston Center
Sat 04:39:51 PM 40.5703 -72.7269 220° Southwest 212 244 19,100 1,300 Climbing Boston Center
Sat 04:40:51 PM 40.5244 -72.7786 221° Southwest 217 250 20,300 1,300 Climbing Boston Center
Sat 04:41:51 PM 40.4742 -72.8331 219° Southwest 217 250 21,700 1,300 Climbing Boston Center
Sat 04:42:51 PM 40.4197 -72.8736 210° Southwest 227 261 22,900 1,200 Climbing Boston Center
Sat 04:43:51 PM 40.3572 -72.9083 203° Southwest 238 274 24,100 1,350 Climbing Boston Center
Sat 04:44:51 PM 40.2986 -72.9433 204° Southwest 238 274 25,600 1,150 Climbing Boston Center
Sat 04:45:51 PM 40.2319 -72.9808 203° Southwest 238 274 26,400 1,050 Climbing Boston Center
Sat 04:46:51 PM 40.1756 -73.0103 202° Southwest 238 274 27,700 1,150 Climbing Boston Center
Sat 04:47:51 PM 40.1169 -73.0478 206° Southwest 238 274 28,700 850 Climbing Boston Center
Sat 04:48:51 PM 40.0606 -73.0881 209° Southwest 238 274 29,400 850 Climbing Boston Center
Sat 04:49:51 PM 40.0081 -73.1361 215° Southwest 238 274 30,400 900 Climbing Boston Center
Sat 04:50:51 PM 39.9556 -73.1844 215° Southwest 238 274 31,200 736 Climbing Boston Center
Sat 04:52:34 PM 39.8847 -73.2689 222° Southwest 224 258 32,400 552 Climbing Washington Center
Sat 04:53:34 PM 39.8400 -73.3217 222° Southwest 218 251 32,700 446 Climbing Washington Center
Sat 04:54:35 PM 39.7953 -73.3825 226° Southwest 223 257 33,300 590 Climbing Washington Center
Sat 04:55:36 PM 39.7442 -73.4408 221° Southwest 228 262 33,900 504 Climbing Washington Center
Sat 04:56:34 PM 39.7117 -73.4956 232° Southwest 221 254 34,300 403 Climbing Washington Center
Sat 04:57:35 PM 39.6544 -73.5539 218° Southwest 232 267 34,700 545 Climbing Washington Center
Sat 04:58:35 PM 39.6094 -73.6092 223° Southwest 232 267 35,400 545 Climbing Washington Center
Sat 04:59:36 PM 39.5647 -73.6669 225° Southwest 232 267 35,800 300 Climbing Washington Center
Sat 05:00:35 PM 39.5175 -73.7247 223° Southwest 238 274 36,000 101 Climbing Washington Center
Sat 05:01:35 PM 39.4706 -73.7797 222° Southwest 238 274 36,000  Level Washington Center
Sat 05:02:36 PM 39.4236 -73.8400 225° Southwest 238 274 36,000  Level Washington Center
Sat 05:03:34 PM 39.3722 -73.9003 222° Southwest 238 274 36,000  Level Washington Center
Sat 05:04:34 PM 39.3231 -73.9603 223° Southwest 238 274 36,000 -50 Level Washington Center
Sat 05:05:35 PM 39.2758 -74.0206 225° Southwest 238 274 35,900  Descending Washington Center
Sat 05:06:36 PM 39.2247 -74.0831 223° Southwest 238 274 36,000 50 Climbing Washington Center
Sat 05:07:34 PM 39.1753 -74.1431 223° Southwest 238 274 36,000 101 Level Washington Center
Sat 05:08:35 PM 39.1322 -74.1975 224° Southwest 238 274 36,200  Climbing Washington Center
Sat 05:09:36 PM 39.0828 -74.2547 222° Southwest 238 274 36,000 -101 Descending Washington Center
Sat 05:10:34 PM 39.0336 -74.3169 225° Southwest 238 274 36,000 51 Level Washington Center
Sat 05:11:34 PM 38.9842 -74.3767 223° Southwest 238 274 36,100  Climbing Washington Center
Sat 05:12:36 PM 38.9325 -74.4361 222° Southwest 238 274 36,000 -49 Descending Washington Center
Sat 05:13:36 PM 38.8831 -74.4983 224° Southwest 243 280 36,000  Level Washington Center
Sat 05:14:34 PM 38.8358 -74.5550 223° Southwest 243 280 36,000  Level Washington Center
Sat 05:15:34 PM 38.7842 -74.6142 222° Southwest 243 280 36,000  Level Washington Center
Sat 05:16:34 PM 38.7344 -74.6708 222° Southwest 238 274 36,000  Level Washington Center
Sat 05:17:35 PM 38.6869 -74.7300 224° Southwest 238 274 36,000  Level Washington Center
Sat 05:18:35 PM 38.6375 -74.7889 223° Southwest 238 274 36,000  Level Washington Center
Sat 05:19:36 PM 38.5708 -74.8242 202° Southwest 249 287 36,000  Level Washington Center
Sat 05:20:36 PM 38.5025 -74.8594 202° Southwest 256 295 36,000  Level Washington Center
Sat 05:21:35 PM 38.4381 -74.8972 205° Southwest 261 300 36,000  Level Washington Center
Sat 05:22:35 PM 38.3694 -74.9322 202° Southwest 261 300 36,000  Level Washington Center
Sat 05:23:36 PM 38.3050 -74.9700 205° Southwest 266 306 36,000  Level Washington Center
Sat 05:24:36 PM 38.2364 -75.0050 202° Southwest 266 306 36,000  Level Washington Center
Sat 05:25:34 PM 38.1656 -75.0425 203° Southwest 272 313 36,000 51 Level Washington Center
Sat 05:26:34 PM 38.0969 -75.0853 206° Southwest 272 313 36,100 50 Climbing Washington Center
Sat 05:27:35 PM 38.0242 -75.1200 201° Southwest 272 313 36,100  Level Washington Center
Sat 05:28:35 PM 37.9533 -75.1572 203° Southwest 272 313 36,100 -50 Level Washington Center
Sat 05:29:36 PM 37.8806 -75.1972 203° Southwest 277 319 36,000 -50 Descending Washington Center
Sat 05:30:35 PM 37.8075 -75.2344 202° Southwest 277 319 36,000  Level Washington Center
Sat 05:31:35 PM 37.7347 -75.2689 201° Southwest 277 319 36,000  Level Washington Center
Sat 05:32:34 PM 37.6639 -75.3111 205° Southwest 277 319 36,000  Level Washington Center
Sat 05:33:35 PM 37.5931 -75.3456 201° Southwest 277 319 36,000  Level Washington Center
Sat 05:34:35 PM 37.5222 -75.3822 202° Southwest 277 319 36,000 50 Level Washington Center
Sat 05:35:36 PM 37.4533 -75.4217 204° Southwest 277 319 36,100 50 Climbing Washington Center
Sat 05:36:34 PM 37.3825 -75.4558 201° Southwest 272 313 36,100 -50 Level Washington Center
Sat 05:37:35 PM 37.3117 -75.4953 204° Southwest 272 313 36,000 -50 Descending Washington Center
Sat 05:38:35 PM 37.2408 -75.5319 202° Southwest 272 313 36,000  Level Washington Center
Sat 05:39:34 PM 37.1700 -75.5683 202° Southwest 272 313 36,000  Level Washington Center
Sat 05:40:35 PM 37.0989 -75.6050 202° Southwest 272 313 36,000 50 Level Washington Center
Sat 05:41:34 PM 37.0281 -75.6414 202° Southwest 272 313 36,100  Climbing Washington Center
Sat 05:42:35 PM 36.9572 -75.6778 202° Southwest 272 313 36,000 -49 Descending Washington Center
Sat 05:43:36 PM 36.8861 -75.7139 202° Southwest 272 313 36,000  Level Washington Center
Sat 05:44:34 PM 36.8153 -75.7528 204° Southwest 272 313 36,000  Level Washington Center
Sat 05:45:34 PM 36.7442 -75.7942 205° Southwest 277 319 36,000  Level Washington Center
Sat 05:46:35 PM 36.6711 -75.8328 203° Southwest 277 319 36,000  Level Washington Center
Sat 05:47:36 PM 36.6000 -75.8739 205° Southwest 277 319 36,000  Level Washington Center
Sat 05:48:36 PM 36.5269 -75.9150 204° Southwest 277 319 36,000  Level Washington Center
Sat 05:49:34 PM 36.4475 -75.9586 204° Southwest 277 319 36,000  Level Washington Center
Sat 05:50:35 PM 36.3764 -75.9994 205° Southwest 282 325 36,000  Level Washington Center
Sat 05:51:36 PM 36.3033 -76.0353 202° Southwest 282 325 36,000 50 Level Washington Center
Sat 05:52:35 PM 36.2322 -76.0761 205° Southwest 282 325 36,100  Climbing Washington Center
Sat 05:53:35 PM 36.1611 -76.1142 203° Southwest 282 325 36,000  Descending Washington Center
Sat 05:54:36 PM 36.0858 -76.1575 205° Southwest 282 325 36,100  Climbing Washington Center
Sat 05:55:34 PM 36.0125 -76.1956 203° Southwest 282 325 36,000 -51 Descending Washington Center
Sat 05:56:34 PM 35.9394 -76.2333 203° Southwest 282 325 36,000  Level Washington Center
Sat 05:57:35 PM 35.8661 -76.2764 205° Southwest 287 330 36,000  Level Washington Center
Sat 05:58:36 PM 35.7928 -76.3117 201° Southwest 287 330 36,000  Level Washington Center
Sat 05:59:34 PM 35.7197 -76.3494 203° Southwest 292 336 36,000 51 Level Washington Center
Sat 06:00:34 PM 35.6464 -76.3919 205° Southwest 292 336 36,100  Climbing Washington Center
Sat 06:01:34 PM 35.5753 -76.4297 203° Southwest 292 336 36,000  Descending Washington Center
Sat 06:02:36 PM 35.5019 -76.4697 204° Southwest 292 336 36,100  Climbing Washington Center
Sat 06:03:36 PM 35.4286 -76.5097 204° Southwest 297 342 36,000 -51 Descending Washington Center
Sat 06:04:34 PM 35.3572 -76.5497 205° Southwest 297 342 36,000 50 Level Washington Center
Sat 06:05:35 PM 35.2797 -76.5919 204° Southwest 291 335 36,100  Climbing Washington Center
Sat 06:06:35 PM 35.2064 -76.6317 204° Southwest 296 341 36,000 -50 Descending Washington Center
Sat 06:07:36 PM 35.1308 -76.6714 203° Southwest 296 341 36,000  Level Washington Center
Sat 06:08:36 PM 35.0553 -76.7136 205° Southwest 296 341 36,000  Level Washington Center
Sat 06:09:34 PM 34.9778 -76.7506 201° Southwest 296 341 36,000  Level Washington Center
Sat 06:10:34 PM 34.9022 -76.7900 203° Southwest 296 341 36,000 49 Level Washington Center
Sat 06:11:36 PM 34.8267 -76.8319 205° Southwest 301 346 36,100  Climbing Washington Center
Sat 06:12:36 PM 34.7472 -76.8711 202° Southwest 301 346 36,000 -51 Descending Washington Center
Sat 06:13:34 PM 34.6736 -76.9103 204° Southwest 301 346 36,000 50 Level Washington Center
Sat 06:14:35 PM 34.5939 -76.9494 202° Southwest 296 341 36,100 50 Climbing Washington Center
Sat 06:15:35 PM 34.5161 -76.9911 204° Southwest 296 341 36,100 -50 Level Washington Center
Sat 06:16:35 PM 34.4386 -77.0300 202° Southwest 296 341 36,000  Descending Washington Center
Sat 06:17:34 PM 34.3631 -77.0714 204° Southwest 296 341 36,100 50 Climbing Washington Center
Sat 06:18:36 PM 34.2811 -77.1103 201° Southwest 296 341 36,100 -50 Level Washington Center
Sat 06:19:34 PM 34.2014 -77.1489 202° Southwest 296 341 36,000 151 Descending Washington Center
Sat 06:20:35 PM 34.1236 -77.1925 205° Southwest 301 346 36,400 350 Climbing Washington Center
Sat 06:21:34 PM 34.0481 -77.2286 202° Southwest 301 346 36,700 400 Climbing Washington Center
Sat 06:22:35 PM 33.9722 -77.2672 203° Southwest 301 346 37,200 450 Climbing Washington Center
Sat 06:23:34 PM 33.8989 -77.3033 202° Southwest 294 338 37,600 281 Climbing Washington Center
Sat 06:25:26 PM 33.7697 -77.3689 203° Southwest 285 328 38,000 279 Climbing Jacksonville Center
Sat 06:26:26 PM 33.6961 -77.4036 201° Southwest 285 328 38,400 300 Climbing Jacksonville Center
Sat 06:28:26 PM 33.5511 -77.4772 203° Southwest 290 334 38,900 300 Climbing Jacksonville Center
Sat 06:29:26 PM 33.4819 -77.5139 204° Southwest 290 334 39,300 350 Climbing Jacksonville Center
Sat 06:30:26 PM 33.4103 -77.5506 203° Southwest 290 334 39,600 300 Climbing Jacksonville Center
Sat 06:31:26 PM 33.3408 -77.5847 202° Southwest 285 328 39,900 200 Climbing Jacksonville Center
Sat 06:32:26 PM 33.2692 -77.6186 202° Southwest 285 328 40,000 50 Climbing Jacksonville Center
Sat 06:33:26 PM 33.1978 -77.6553 203° Southwest 285 328 40,000  Level Jacksonville Center
Sat 06:34:26 PM 33.1219 -77.6919 202° Southwest 290 334 40,000  Level Jacksonville Center
Sat 06:35:26 PM 33.0464 -77.7311 203° Southwest 295 339 40,000  Level Jacksonville Center
Sat 06:36:26 PM 32.9686 -77.7675 201° Southwest 295 339 40,000  Level Jacksonville Center
Sat 06:37:26 PM 32.8908 -77.8067 203° Southwest 300 345 40,000  Level Jacksonville Center
Sat 06:38:26 PM 32.8150 -77.8431 202° Southwest 300 345 40,000  Level Jacksonville Center
Sat 06:39:26 PM 32.7375 -77.8819 203° Southwest 300 345 40,000  Level Jacksonville Center
Sat 06:40:26 PM 32.6533 -77.9211 201° Southwest 305 351 40,000  Level Jacksonville Center
Sat 06:41:26 PM 32.5736 -77.9625 204° Southwest 305 351 40,000  Level Jacksonville Center
Sat 06:42:26 PM 32.4956 -77.9989 201° Southwest 305 351 40,000  Level Jacksonville Center
Sat 06:43:26 PM 32.4158 -78.0400 204° Southwest 305 351 40,000  Level Jacksonville Center
Sat 06:44:26 PM 32.3381 -78.0761 201° Southwest 305 351 40,000  Level Jacksonville Center
Sat 06:45:26 PM 32.2581 -78.1172 203° Southwest 310 357 40,000  Level Jacksonville Center
Sat 06:46:26 PM 32.1781 -78.1533 201° Southwest 310 357 40,000  Level Jacksonville Center
Sat 06:47:26 PM 32.0981 -78.1917 202° Southwest 310 357 40,000  Level Jacksonville Center
Sat 06:48:26 PM 32.0183 -78.2350 205° Southwest 310 357 40,000  Level Jacksonville Center
Sat 06:49:26 PM 31.9406 -78.2781 205° Southwest 310 357 40,000  Level Jacksonville Center
Sat 06:50:26 PM 31.8583 -78.3164 202° Southwest 317 365 40,000  Level Jacksonville Center
Sat 06:51:26 PM 31.7786 -78.3569 203° Southwest 317 365 40,000  Level Jacksonville Center
Sat 06:52:26 PM 31.6922 -78.3978 202° Southwest 317 365 40,000  Level Jacksonville Center
Sat 06:53:26 PM 31.6142 -78.4333 201° Southwest 317 365 40,000  Level Jacksonville Center
Sat 06:54:26 PM 31.5281 -78.4764 203° Southwest 327 376 40,000  Level Jacksonville Center
Sat 06:55:26 PM 31.4458 -78.5144 202° Southwest 330 380 40,000  Level Jacksonville Center
Sat 06:56:26 PM 31.3639 -78.5572 204° Southwest 333 383 40,000  Level Jacksonville Center
Sat 06:57:26 PM 31.2775 -78.5953 201° Southwest 331 381 40,000  Level Jacksonville Center
Sat 06:58:26 PM 31.1972 -78.6328 202° Southwest 331 381 40,000  Level Jacksonville Center
Sat 06:59:26 PM 31.1111 -78.6756 203° Southwest 331 381 40,000  Level Jacksonville Center
Sat 07:00:26 PM 31.0289 -78.7133 201° Southwest 326 375 40,000  Level Jacksonville Center
Sat 07:01:26 PM 30.9508 -78.7506 202° Southwest 331 381 40,000  Level Jacksonville Center
Sat 07:02:26 PM 30.8664 -78.7906 202° Southwest 331 381 40,000  Level Jacksonville Center
Sat 07:03:26 PM 30.7864 -78.8328 204° Southwest 331 381 40,000  Level Jacksonville Center
Sat 07:04:26 PM 30.6936 -78.8681 198° South 337 388 40,000  Level Jacksonville Center
Sat 07:05:26 PM 30.6133 -78.9100 204° Southwest 337 388 40,000  Level Jacksonville Center
Sat 07:05:46 PM 30.5864 -78.9225 202° Southwest 333 383 40,000  Level Miami Center
Sat 07:06:46 PM 30.5025 -78.9617 202° Southwest 328 377 40,000  Level Miami Center
Sat 07:07:46 PM 30.4206 -79.0011 203° Southwest 328 377 40,000  Level Miami Center
Sat 07:08:46 PM 30.3303 -79.0375 199° South 328 377 40,000  Level Miami Center
Sat 07:09:46 PM 30.2486 -79.0742 201° Southwest 338 389 40,000  Level Miami Center
Sat 07:10:46 PM 30.1603 -79.1133 201° Southwest 333 383 40,000  Level Miami Center
Sat 07:11:46 PM 30.0764 -79.1500 201° Southwest 333 383 40,000  Level Miami Center
Sat 07:12:46 PM 29.9778 -79.1933 201° Southwest 333 383 40,000 -450 Level Miami Center
Sat 07:13:46 PM 29.8914 -79.2369 204° Southwest 338 389 39,100 -1,050 Descending Miami Center
Sat 07:14:46 PM 29.8011 -79.2803 203° Southwest 344 396 37,900 -1,050 Descending Miami Center
Sat 07:15:46 PM 29.7047 -79.3092 195° South 355 409 37,000 -1,050 Descending Miami Center
Sat 07:16:46 PM 29.6206 -79.3528 204° Southwest 350 403 35,800 -1,000 Descending Miami Center
Sat 07:17:46 PM 29.5322 -79.3911 201° Southwest 350 403 35,000 -900 Descending Miami Center
Sat 07:18:46 PM 29.4419 -79.4225 197° South 345 397 34,000 -1,000 Descending Miami Center
Sat 07:19:46 PM 29.3558 -79.4608 201° Southwest 339 390 33,000 -950 Descending Miami Center
Sat 07:20:46 PM 29.2694 -79.5064 205° Southwest 339 390 32,100 -950 Descending Miami Center
Sat 07:21:46 PM 29.1831 -79.5567 207° Southwest 344 396 31,100 -900 Descending Miami Center
Sat 07:22:46 PM 29.1025 -79.6164 213° Southwest 344 396 30,300 -1,700 Descending Miami Center
Sat 07:23:46 PM 29.0219 -79.6808 215° Southwest 349 402 27,700 4,850 Descending Miami Center
Sat 07:24:46 PM 28.9456 -79.7453 216° Southwest 354 407 40,000 -1,950 Climbing Miami Center
Sat 07:25:46 PM 28.8756 -79.8003 215° Southwest 339 390 23,800 -8,500 Descending Miami Center
Sat 07:26:46 PM 28.8036 -79.8528 213° Southwest 328 377 23,000 -1,200 Descending Miami Center
Sat 07:27:46 PM 28.7317 -79.9031 212° Southwest 317 365 21,400 -1,361 Descending Miami Center
Sat 07:28:45 PM 28.6764 -79.9536 219° Southwest 317 365 20,300 -700 Descending Miami Center
Sat 07:29:46 PM 28.6261 -80.0514 240° Southwest 307 353 20,000 -149 Descending Miami Center
Sat 07:30:46 PM 28.5825 -80.1378 240° Southwest 307 353 20,000  Level Miami Center
Sat 07:31:46 PM 28.5453 -80.2075 239° Southwest 301 346 20,000  Level Miami Center
Sat 07:32:46 PM 28.5122 -80.2869 245° Southwest 294 338 20,000  Level Miami Center
Sat 07:33:46 PM 28.4933 -80.3808 257° West 277 319 20,000  Level Miami Center
Sat 07:34:46 PM 28.4622 -80.4553 245° Southwest 277 319 20,000  Level Miami Center
Sat 07:35:46 PM 28.4311 -80.5344 246° West 277 319 20,000  Level Miami Center
Sat 07:36:46 PM 28.4000 -80.6044 243° Southwest 277 319 20,000  Level Miami Center
Sat 07:37:46 PM 28.3667 -80.6811 244° Southwest 277 319 20,000  Level Miami Center
Sat 07:38:46 PM 28.3333 -80.7600 244° Southwest 277 319 20,000  Level Miami Center
Sat 07:39:46 PM 28.2978 -80.8344 242° Southwest 277 319 20,000  Level Miami Center
Sat 07:40:46 PM 28.2644 -80.9108 244° Southwest 277 319 20,000 -200 Level Miami Center
Sat 07:41:46 PM 28.2328 -80.9900 246° West 277 319 19,600 -850 Descending Miami Center
Sat 07:42:46 PM 28.1972 -81.0664 242° Southwest 277 319 18,300 -1,100 Descending Miami Center
Sat 07:43:46 PM 28.1639 -81.1403 243° Southwest 277 319 17,400 -600 Descending Miami Center
Sat 07:44:46 PM 28.1303 -81.2167 243° Southwest 277 319 17,100 -150 Descending Miami Center
Sat 07:45:46 PM 28.0967 -81.2908 243° Southwest 277 319 17,100  Level Miami Center
Sat 07:46:46 PM 28.0569 -81.3622 238° Southwest 277 319 17,100  Level Miami Center
Sat 07:47:46 PM 27.9831 -81.3828 194° South 262 302 17,100 -500 Level Miami Center
Sat 07:48:46 PM 27.9058 -81.3844 181° South 267 307 16,100 -1,150 Descending Miami Center
Sat 07:49:46 PM 27.8181 -81.3925 185° South 279 321 14,800 -1,050 Descending Miami Center
Sat 07:50:46 PM 27.7508 -81.4017 187° South 279 321 14,000 -350 Descending Miami Center
Sat 07:51:46 PM 27.6714 -81.4103 185° South 279 321 14,100 50 Climbing Miami Center
Sat 07:52:46 PM 27.5939 -81.4189 186° South 279 321 14,100  Level Miami Center
Sat 07:53:46 PM 27.5183 -81.4275 186° South 279 321 14,100  Level Miami Center
Sat 07:54:46 PM 27.4408 -81.4361 186° South 279 321 14,100 -50 Level Miami Center
Sat 07:55:46 PM 27.3633 -81.4447 186° South 279 321 14,000 -600 Descending Miami Center
Sat 07:56:46 PM 27.2839 -81.4533 186° South 279 321 12,900 -1,200 Descending Miami Center
Sat 07:57:46 PM 27.2042 -81.4642 187° South 279 321 11,600 -1,150 Descending Miami Center
Sat 07:58:46 PM 27.1206 -81.4725 185° South 284 327 10,600 -800 Descending Miami Center
Sat 07:59:46 PM 27.0428 -81.4811 186° South 284 327 10,000 -300 Descending Miami Center
Sat 08:00:46 PM 26.9725 -81.4667 170° South 269 310 10,000  Level Miami Center
Sat 08:01:46 PM 26.9108 -81.4317 153° Southeast 269 310 10,000  Level Miami Center
Sat 08:02:46 PM 26.8347 -81.3936 156° South 275 316 10,000  Level Miami Center
Sat 08:03:46 PM 26.7619 -81.3861 175° South 260 299 10,000  Level Miami Center
Sat 08:04:46 PM 26.6886 -81.3950 186° South 260 299 10,000  Level Miami Center
Sat 08:06:00 PM 26.5920 -81.3875 188° South  Level FlightAware Approximate
Sat 08:13:00 PM 26.1719 -81.7118 246° West  Level FlightAware Approximate
Sat 08:14:00 PM 26.1500 -81.7667 246° West  Level FlightAware Approximate
Sat 08:15:00 PM 26.1524 -81.7756 246° West  Level Estimated
Sat 08:16:00 PM 26.1524 -81.7756 246° West  Level Estimated
Sat 08:17:00 PM 26.1524 -81.7756 246° West  Level Estimated
Sat 08:18:00 PM 26.1524 -81.7756 246° West  Level Estimated
Sat 08:19:00 PM 26.1524 -81.7756 246° West  Level Estimated
Sat 08:20:00 PM 26.1524 -81.7756 246° West  Level Estimated
Sat 08:21:00 PM 26.1524 -81.7756 246° West  Level Estimated
Sat 08:22:00 PM 26.1524 -81.7756 246° West  Level Estimated
Sat 08:23:00 PM 26.1524 -81.7756 246° West  Level Estimated
Sat 08:24:00 PM 26.1524 -81.7756 246° West  Level Estimated

Login

Don't have an account? Register now (free) for customized features, flight alerts, and more!